createdAt,value
2023-02-26T00:01:02.868Z,94769.91
2023-02-26T00:03:30.647Z,94769.25
2023-02-26T00:06:01.362Z,94773.66
2023-02-26T00:08:31.492Z,94779.94
2023-02-26T00:11:01.837Z,94790.72
2023-02-26T00:13:31.748Z,94789.44
2023-02-26T00:16:02.060Z,94786.91
2023-02-26T00:18:30.670Z,94786.91
2023-02-26T00:20:58.762Z,94784.47
2023-02-26T00:23:27.471Z,94789.06
2023-02-26T00:25:55.144Z,94783.56
2023-02-26T00:28:23.530Z,94787.97
2023-02-26T00:30:54.089Z,94786.97
2023-02-26T00:33:22.490Z,94799.00
2023-02-26T00:35:57.216Z,94790.53
2023-02-26T00:38:25.671Z,94793.09
2023-02-26T00:40:55.565Z,94793.56
2023-02-26T00:43:26.594Z,94802.97
2023-02-26T00:46:08.290Z,94801.81
2023-02-26T00:48:48.444Z,94797.97
2023-02-26T00:51:21.945Z,94798.34
2023-02-26T00:53:59.142Z,94801.75
2023-02-26T00:56:26.855Z,94809.66
2023-02-26T00:58:54.671Z,94806.63
2023-02-26T01:01:23.594Z,94807.34
2023-02-26T01:03:52.018Z,94798.75
2023-02-26T01:06:22.695Z,94803.94
2023-02-26T01:08:58.195Z,94807.50
2023-02-26T01:11:26.263Z,94806.53
2023-02-26T01:13:54.544Z,94805.03
2023-02-26T01:16:28.848Z,94803.88
2023-02-26T01:19:03.831Z,94810.88
2023-02-26T01:21:35.810Z,94813.63
2023-02-26T01:24:07.685Z,94806.97
2023-02-26T01:26:35.954Z,94817.31
2023-02-26T01:29:05.031Z,94813.94
2023-02-26T01:31:42.545Z,94814.47
2023-02-26T01:34:19.609Z,94813.53
2023-02-26T01:36:55.634Z,94819.97
2023-02-26T01:39:30.472Z,94814.78
2023-02-26T01:42:04.771Z,94806.06
2023-02-26T01:44:37.752Z,94807.69
2023-02-26T01:47:17.007Z,94809.91
2023-02-26T01:49:46.347Z,94809.63
2023-02-26T01:53:06.297Z,94813.84
2023-02-26T01:55:34.876Z,94808.50
2023-02-26T01:58:05.890Z,94803.59
2023-02-26T02:00:33.816Z,94810.94
2023-02-26T02:03:03.276Z,94814.22
2023-02-26T02:05:40.359Z,94813.13
2023-02-26T02:08:08.400Z,94815.69
2023-02-26T02:10:36.568Z,94812.53
2023-02-26T02:13:08.908Z,94811.97
2023-02-26T02:15:45.480Z,94819.19
2023-02-26T02:18:22.816Z,94822.88
2023-02-26T02:21:11.611Z,94825.03
2023-02-26T02:23:44.302Z,94824.66
2023-02-26T02:26:51.281Z,94819.34
2023-02-26T02:29:35.265Z,94819.19
2023-02-26T02:32:09.947Z,94823.69
2023-02-26T02:34:42.941Z,94838.97
2023-02-26T02:37:17.316Z,94834.63
2023-02-26T02:39:50.219Z,94842.97
2023-02-26T02:42:24.457Z,94843.66
2023-02-26T02:44:57.615Z,94835.41
2023-02-26T02:47:30.217Z,94845.81
2023-02-26T02:50:06.605Z,94843.91
2023-02-26T02:52:52.271Z,94840.09
2023-02-26T02:55:23.348Z,94847.88
2023-02-26T02:57:54.814Z,94844.19
2023-02-26T03:00:25.246Z,94848.84
2023-02-26T03:03:00.491Z,94845.59
2023-02-26T03:05:28.684Z,94854.03
2023-02-26T03:07:59.987Z,94861.97
2023-02-26T03:10:28.225Z,94859.94
2023-02-26T03:12:55.918Z,94870.00
2023-02-26T03:15:34.425Z,94869.63
2023-02-26T03:18:14.010Z,94869.19
2023-02-26T03:20:53.852Z,94870.44
2023-02-26T03:23:24.916Z,94880.81
2023-02-26T03:25:57.267Z,94881.63
2023-02-26T03:28:31.277Z,94886.81
2023-02-26T03:31:08.632Z,94886.97
2023-02-26T03:33:45.756Z,94895.56
2023-02-26T03:36:22.598Z,94895.81
2023-02-26T03:39:09.599Z,94901.81
2023-02-26T03:41:41.985Z,94897.22
2023-02-26T03:44:14.505Z,94902.66
2023-02-26T03:46:47.624Z,94904.56
2023-02-26T03:49:22.460Z,94907.03
2023-02-26T03:51:53.004Z,94915.09
2023-02-26T03:54:52.072Z,94916.84
2023-02-26T03:57:40.729Z,94920.13
2023-02-26T04:00:21.427Z,94927.91
2023-02-26T04:02:55.849Z,94930.50
2023-02-26T04:05:28.886Z,94927.91
2023-02-26T04:07:58.775Z,94932.94
2023-02-26T04:10:34.152Z,94940.34
2023-02-26T04:13:02.786Z,94936.78
2023-02-26T04:15:30.497Z,94931.31
2023-02-26T04:17:58.157Z,94937.88
2023-02-26T04:20:30.414Z,94936.78
2023-02-26T04:22:58.072Z,94938.56
2023-02-26T04:25:25.652Z,94942.78
2023-02-26T04:27:54.147Z,94935.41
2023-02-26T04:30:22.551Z,94929.94
2023-02-26T04:32:50.475Z,94933.22
2023-02-26T04:35:19.167Z,94943.59
2023-02-26T04:37:48.319Z,94944.56
2023-02-26T04:40:17.319Z,94942.91
2023-02-26T04:42:47.268Z,94948.38
2023-02-26T04:45:19.975Z,94946.75
2023-02-26T04:47:47.540Z,94941.44
2023-02-26T04:50:15.890Z,94956.44
2023-02-26T04:52:45.361Z,94939.09
2023-02-26T04:55:14.911Z,94947.44
2023-02-26T04:57:43.671Z,94947.84
2023-02-26T05:00:13.168Z,94949.88
2023-02-26T05:02:41.318Z,94950.56
2023-02-26T05:05:10.290Z,94956.56
2023-02-26T05:07:38.499Z,94955.22
2023-02-26T05:10:08.312Z,94950.03
2023-02-26T05:12:38.065Z,94958.06
2023-02-26T05:15:07.018Z,94963.53
2023-02-26T05:17:34.620Z,94965.69
2023-02-26T05:20:02.540Z,94953.28
2023-02-26T05:22:30.784Z,94958.47
2023-02-26T05:24:58.438Z,94961.44
2023-02-26T05:27:26.417Z,94965.66
2023-02-26T05:29:55.330Z,94965.38
2023-02-26T05:32:24.164Z,94968.91
2023-02-26T05:34:51.833Z,94971.34
2023-02-26T05:37:19.710Z,94967.13
2023-02-26T05:39:47.292Z,94962.63
2023-02-26T05:42:16.589Z,94963.97
2023-02-26T05:44:44.160Z,94974.59
2023-02-26T05:47:13.451Z,94976.22
2023-02-26T05:49:41.070Z,94969.22
2023-02-26T05:52:09.468Z,94971.63
2023-02-26T05:54:37.008Z,94973.22
2023-02-26T05:57:05.056Z,94977.16
2023-02-26T05:59:32.652Z,94976.31
2023-02-26T06:02:00.644Z,94975.09
2023-02-26T06:04:29.550Z,94993.06
2023-02-26T06:06:57.511Z,94985.53
2023-02-26T06:09:25.062Z,94999.16
2023-02-26T06:11:54.031Z,94992.31
2023-02-26T06:14:21.599Z,94990.81
2023-02-26T06:16:49.956Z,94995.28
2023-02-26T06:19:17.546Z,95000.47
2023-02-26T06:21:46.989Z,95008.72
2023-02-26T06:24:14.590Z,95017.44
2023-02-26T06:26:42.162Z,95017.00
2023-02-26T06:29:09.849Z,95020.78
2023-02-26T06:31:37.702Z,95024.06
2023-02-26T06:34:05.809Z,95042.88
2023-02-26T06:36:33.408Z,95046.16
2023-02-26T06:39:03.032Z,95048.06
2023-02-26T06:41:30.577Z,95053.66
2023-02-26T06:43:58.164Z,95045.63
2023-02-26T06:46:26.112Z,95054.63
2023-02-26T06:48:54.203Z,95049.44
2023-02-26T06:51:21.774Z,95061.16
2023-02-26T06:53:49.453Z,95064.47
2023-02-26T06:56:18.572Z,95059.53
2023-02-26T06:58:46.352Z,95050.59
2023-02-26T07:01:13.959Z,95053.38
2023-02-26T07:03:41.831Z,95055.31
2023-02-26T07:06:38.638Z,95063.56
2023-02-26T07:09:00.328Z,95070.44
2023-02-26T07:11:29.224Z,95073.34
2023-02-26T07:13:57.416Z,95076.81
2023-02-26T07:16:25.419Z,95078.63
2023-02-26T07:18:53.626Z,95073.34
2023-02-26T07:21:21.211Z,95076.16
2023-02-26T07:23:49.396Z,95087.94
2023-02-26T07:26:17.556Z,95097.78
2023-02-26T07:28:46.722Z,95101.59
2023-02-26T07:31:16.556Z,95108.38
2023-02-26T07:33:44.836Z,95118.94
2023-02-26T07:36:12.398Z,95120.13
2023-02-26T07:38:40.407Z,95133.47
2023-02-26T07:41:08.008Z,95137.53
2023-02-26T07:43:35.626Z,95137.81
2023-02-26T07:46:05.179Z,95150.09
2023-02-26T07:48:33.740Z,95156.97
2023-02-26T07:51:01.458Z,95155.38
2023-02-26T07:53:29.023Z,95164.66
2023-02-26T07:55:56.598Z,95155.75
2023-02-26T07:58:25.107Z,95153.38
2023-02-26T08:00:53.279Z,95153.94
2023-02-26T08:03:22.784Z,95151.91
2023-02-26T08:05:50.367Z,95142.59
2023-02-26T08:08:17.923Z,95148.16
2023-02-26T08:10:45.822Z,95149.63
2023-02-26T08:13:13.372Z,95134.72
2023-02-26T08:15:43.862Z,95139.94
2023-02-26T08:18:11.590Z,95141.22
2023-02-26T08:20:40.929Z,95145.03
2023-02-26T08:23:08.490Z,95145.03
2023-02-26T08:25:36.381Z,95141.13
2023-02-26T08:28:04.152Z,95140.66
2023-02-26T08:30:32.447Z,95143.28
2023-02-26T08:33:00.034Z,95136.78
2023-02-26T08:35:28.132Z,95139.94
2023-02-26T08:37:57.207Z,95144.50
2023-02-26T08:40:25.226Z,95135.97
2023-02-26T08:42:53.548Z,95134.19
2023-02-26T08:45:21.195Z,95134.84
2023-02-26T08:47:56.742Z,95142.81
2023-02-26T08:50:25.317Z,95154.09
2023-02-26T08:52:53.051Z,95157.88
2023-02-26T08:55:22.815Z,95163.34
2023-02-26T08:57:50.401Z,95164.59
2023-02-26T09:00:18.560Z,95171.94
2023-02-26T09:02:46.865Z,95172.41
2023-02-26T09:05:15.723Z,95187.13
2023-02-26T09:07:43.917Z,95191.09
2023-02-26T09:10:14.253Z,95191.41
2023-02-26T09:12:43.222Z,95185.66
2023-02-26T09:15:12.575Z,95189.59
2023-02-26T09:17:41.212Z,95190.34
2023-02-26T09:20:11.421Z,95194.19
2023-02-26T09:22:39.080Z,95190.06
2023-02-26T09:25:08.174Z,95190.66
2023-02-26T09:27:36.264Z,95190.44
2023-02-26T09:30:06.926Z,95199.38
2023-02-26T09:32:34.782Z,95205.56
2023-02-26T09:35:04.470Z,95193.84
2023-02-26T09:37:32.632Z,95199.41
2023-02-26T09:40:01.144Z,95195.91
2023-02-26T09:42:43.587Z,95201.84
2023-02-26T09:45:21.320Z,95216.41
2023-02-26T09:47:52.772Z,95216.91
2023-02-26T09:50:25.092Z,95219.25
2023-02-26T09:52:57.835Z,95222.41
2023-02-26T09:55:30.975Z,95216.03
2023-02-26T09:58:02.119Z,95219.16
2023-02-26T10:00:38.329Z,95230.91
2023-02-26T10:03:20.675Z,95232.75
2023-02-26T10:06:14.121Z,95230.53
2023-02-26T10:08:57.293Z,95233.56
2023-02-26T10:11:32.769Z,95242.38
2023-02-26T10:14:04.960Z,95245.72
2023-02-26T10:16:41.170Z,95247.97
2023-02-26T10:19:20.214Z,95248.53
2023-02-26T10:21:52.873Z,95243.03
2023-02-26T10:24:25.650Z,95247.69
2023-02-26T10:27:01.541Z,95250.34
2023-02-26T10:29:35.514Z,95247.06
2023-02-26T10:32:19.602Z,95237.75
2023-02-26T10:34:52.484Z,95240.06
2023-02-26T10:37:25.140Z,95237.63
2023-02-26T10:39:57.751Z,95238.72
2023-02-26T10:42:29.838Z,95233.09
2023-02-26T10:45:10.497Z,95235.19
2023-02-26T10:47:47.812Z,95240.91
2023-02-26T10:50:17.146Z,95235.69
2023-02-26T10:52:47.007Z,95226.97
2023-02-26T10:55:26.112Z,95223.56
2023-02-26T10:58:06.867Z,95218.91
2023-02-26T11:00:36.163Z,95227.25
2023-02-26T11:03:08.241Z,95219.59
2023-02-26T11:05:36.331Z,95222.16
2023-02-26T11:08:06.803Z,95213.75
2023-02-26T11:10:45.813Z,95217.53
2023-02-26T11:13:13.928Z,95215.72
2023-02-26T11:15:42.045Z,95209.06
2023-02-26T11:18:18.022Z,95226.31
2023-02-26T11:20:47.809Z,95227.56
2023-02-26T11:23:18.779Z,95237.22
2023-02-26T11:25:47.132Z,95237.88
2023-02-26T11:28:24.146Z,95239.06
2023-02-26T11:30:54.341Z,95240.38
2023-02-26T11:33:30.099Z,95253.94
2023-02-26T11:36:01.146Z,95243.97
2023-02-26T11:38:30.049Z,95243.25
2023-02-26T11:40:59.083Z,95248.50
2023-02-26T11:43:34.823Z,95254.31
2023-02-26T11:46:05.514Z,95250.03
2023-02-26T11:48:41.573Z,95258.00
2023-02-26T11:51:14.305Z,95253.03
2023-02-26T11:53:45.231Z,95256.53
2023-02-26T11:56:15.630Z,95247.91
2023-02-26T11:58:46.912Z,95251.75
2023-02-26T12:01:17.573Z,95255.94
2023-02-26T12:03:51.135Z,95256.94
2023-02-26T12:06:20.290Z,95256.38
2023-02-26T12:08:49.307Z,95253.13
2023-02-26T12:11:46.643Z,95257.47
2023-02-26T12:14:35.129Z,95254.53
2023-02-26T12:17:17.118Z,95260.84
2023-02-26T12:19:53.358Z,95260.88
2023-02-26T12:22:35.181Z,95248.81
2023-02-26T12:25:28.762Z,95252.94
2023-02-26T12:28:23.999Z,95262.25
2023-02-26T12:31:15.595Z,95260.63
2023-02-26T12:33:56.557Z,95258.72
2023-02-26T12:36:48.383Z,95256.88
2023-02-26T12:39:32.590Z,95244.25
2023-02-26T12:42:16.392Z,95239.34
2023-02-26T12:45:03.140Z,95230.94
2023-02-26T12:47:45.168Z,95234.47
2023-02-26T12:50:37.702Z,95227.94
2023-02-26T12:53:25.739Z,95227.28
2023-02-26T12:56:06.213Z,95234.47
2023-02-26T12:58:48.546Z,95240.78
2023-02-26T13:01:38.710Z,95233.94
2023-02-26T13:04:25.346Z,95233.88
2023-02-26T13:07:12.403Z,95230.28
2023-02-26T13:09:56.365Z,95239.53
2023-02-26T13:12:37.701Z,95237.56
2023-02-26T13:15:25.587Z,95237.72
2023-02-26T13:18:01.346Z,95237.56
2023-02-26T13:20:29.954Z,95234.75
2023-02-26T13:23:02.858Z,95234.59
2023-02-26T13:25:37.808Z,95241.81
2023-02-26T13:28:24.606Z,95241.50
2023-02-26T13:30:56.616Z,95237.94
2023-02-26T13:33:29.601Z,95251.03
2023-02-26T13:35:59.795Z,95265.75
2023-02-26T13:38:37.035Z,95263.84
2023-02-26T13:41:12.913Z,95284.97
2023-02-26T13:44:02.640Z,95273.66
2023-02-26T13:46:47.201Z,95276.47
2023-02-26T13:49:21.146Z,95271.56
2023-02-26T13:51:50.571Z,95270.34
2023-02-26T13:54:34.352Z,95272.78
2023-02-26T13:57:21.997Z,95270.41
2023-02-26T13:59:56.638Z,95267.28
2023-02-26T14:02:47.886Z,95266.53
2023-02-26T14:05:46.422Z,95270.13
2023-02-26T14:08:45.279Z,95274.75
2023-02-26T14:11:35.132Z,95270.19
2023-02-26T14:14:13.835Z,95272.75
2023-02-26T14:16:44.434Z,95256.34
2023-02-26T14:19:25.013Z,95258.16
2023-02-26T14:21:57.593Z,95251.50
2023-02-26T14:24:36.949Z,95252.56
2023-02-26T14:27:10.307Z,95251.81
2023-02-26T14:29:42.996Z,95258.41
2023-02-26T14:32:16.556Z,95270.66
2023-02-26T14:34:51.917Z,95266.75
2023-02-26T14:37:23.940Z,95272.16
2023-02-26T14:39:57.252Z,95266.97
2023-02-26T14:42:34.349Z,95260.94
2023-02-26T14:45:14.978Z,95272.66
2023-02-26T14:47:45.355Z,95268.56
2023-02-26T14:50:17.822Z,95276.41
2023-02-26T14:53:16.008Z,95269.13
2023-02-26T14:56:00.786Z,95271.66
2023-02-26T14:58:42.117Z,95270.25
2023-02-26T15:01:24.981Z,95284.56
2023-02-26T15:04:22.366Z,95283.91
2023-02-26T15:07:04.733Z,95278.84
2023-02-26T15:09:47.618Z,95278.22
2023-02-26T15:12:27.437Z,95277.44
2023-02-26T15:15:11.313Z,95277.50
2023-02-26T15:17:56.071Z,95295.19
2023-02-26T15:20:32.671Z,95290.97
2023-02-26T15:23:19.181Z,95298.75
2023-02-26T15:25:50.449Z,95292.13
2023-02-26T15:28:23.862Z,95288.38
2023-02-26T15:30:52.737Z,95309.91
2023-02-26T15:33:24.479Z,95319.09
2023-02-26T15:35:53.553Z,95325.84
2023-02-26T15:38:21.839Z,95322.75
2023-02-26T15:40:53.161Z,95333.59
2023-02-26T15:43:25.477Z,95338.16
2023-02-26T15:45:55.465Z,95335.28
2023-02-26T15:48:30.383Z,95336.31
2023-02-26T15:51:02.249Z,95341.44
2023-02-26T15:53:33.200Z,95350.00
2023-02-26T15:56:03.227Z,95360.50
2023-02-26T15:58:37.151Z,95367.63
2023-02-26T16:01:07.393Z,95371.31
2023-02-26T16:03:39.042Z,95373.63
2023-02-26T16:06:12.466Z,95370.44
2023-02-26T16:08:40.649Z,95367.81
2023-02-26T16:11:09.306Z,95370.72
2023-02-26T16:13:42.505Z,95372.44
2023-02-26T16:16:16.585Z,95368.94
2023-02-26T16:18:46.363Z,95367.97
2023-02-26T16:21:23.996Z,95373.84
2023-02-26T16:23:55.043Z,95373.34
2023-02-26T16:26:27.943Z,95376.16
2023-02-26T16:29:00.425Z,95396.38
2023-02-26T16:31:31.063Z,95393.50
2023-02-26T16:34:02.676Z,95399.66
2023-02-26T16:36:32.999Z,95406.75
2023-02-26T16:39:11.352Z,95410.59
2023-02-26T16:41:41.661Z,95409.94
2023-02-26T16:44:40.452Z,95418.03
2023-02-26T16:47:10.605Z,95417.25
2023-02-26T16:49:42.155Z,95422.91
2023-02-26T16:52:17.217Z,95430.84
2023-02-26T16:54:52.527Z,95430.38
2023-02-26T16:57:25.078Z,95437.50
2023-02-26T16:59:56.839Z,95441.72
2023-02-26T17:02:27.464Z,95456.63
2023-02-26T17:05:03.825Z,95454.91
2023-02-26T17:07:34.328Z,95460.97
2023-02-26T17:10:09.310Z,95464.13
2023-02-26T17:12:45.670Z,95465.59
2023-02-26T17:15:20.681Z,95465.31
2023-02-26T17:17:48.581Z,95474.25
2023-02-26T17:20:18.243Z,95475.09
2023-02-26T17:22:46.072Z,95480.28
2023-02-26T17:25:18.650Z,95483.34
2023-02-26T17:27:46.954Z,95488.75
2023-02-26T17:30:17.331Z,95492.53
2023-02-26T17:32:45.490Z,95496.75
2023-02-26T17:35:14.017Z,95505.00
2023-02-26T17:37:44.230Z,95502.44
2023-02-26T17:40:20.136Z,95503.09
2023-02-26T17:42:48.924Z,95507.78
2023-02-26T17:45:16.873Z,95512.47
2023-02-26T17:47:46.773Z,95515.03
2023-02-26T17:50:25.820Z,95514.72
2023-02-26T17:52:55.450Z,95519.97
2023-02-26T17:55:23.066Z,95523.81
2023-02-26T17:57:51.026Z,95530.63
2023-02-26T18:00:20.003Z,95523.53
2023-02-26T18:02:47.692Z,95526.72
2023-02-26T18:05:15.739Z,95520.72
2023-02-26T18:07:43.599Z,95522.50
2023-02-26T18:10:18.142Z,95529.94
2023-02-26T18:12:45.800Z,95535.38
2023-02-26T18:15:13.693Z,95535.50
2023-02-26T18:17:41.515Z,95531.19
2023-02-26T18:20:16.374Z,95530.59
2023-02-26T18:22:44.457Z,95531.66
2023-02-26T18:25:14.712Z,95532.00
2023-02-26T18:27:42.505Z,95538.13
2023-02-26T18:30:23.380Z,95539.69
2023-02-26T18:32:53.189Z,95530.97
2023-02-26T18:35:26.421Z,95535.81
2023-02-26T18:37:57.182Z,95533.56
2023-02-26T18:40:28.572Z,95530.75
2023-02-26T18:42:57.196Z,95535.13
2023-02-26T18:45:25.976Z,95536.78
2023-02-26T18:47:54.386Z,95537.50
2023-02-26T18:50:24.875Z,95544.88
2023-02-26T18:52:52.654Z,95537.84
2023-02-26T18:55:21.524Z,95550.06
2023-02-26T18:57:51.748Z,95546.31
2023-02-26T19:00:24.009Z,95534.03
2023-02-26T19:02:53.985Z,95540.88
2023-02-26T19:05:24.653Z,95535.69
2023-02-26T19:07:52.751Z,95546.41
2023-02-26T19:10:20.507Z,95545.34
2023-02-26T19:12:48.191Z,95542.47
2023-02-26T19:15:18.502Z,95541.56
2023-02-26T19:17:46.658Z,95542.66
2023-02-26T19:20:14.950Z,95551.50
2023-02-26T19:22:43.594Z,95547.44
2023-02-26T19:25:11.290Z,95552.31
2023-02-26T19:27:39.643Z,95556.22
2023-02-26T19:30:10.431Z,95547.25
2023-02-26T19:32:39.676Z,95553.63
2023-02-26T19:35:08.759Z,95554.59
2023-02-26T19:37:36.626Z,95559.69
2023-02-26T19:40:09.715Z,95568.03
2023-02-26T19:42:37.746Z,95560.50
2023-02-26T19:45:06.661Z,95567.91
2023-02-26T19:47:34.238Z,95570.50
2023-02-26T19:50:03.445Z,95581.34
2023-02-26T19:52:31.651Z,95589.22
2023-02-26T19:54:59.403Z,95592.19
2023-02-26T19:57:28.440Z,95584.97
2023-02-26T19:59:56.634Z,95593.50
2023-02-26T20:02:24.244Z,95608.78
2023-02-26T20:04:51.859Z,95610.56
2023-02-26T20:07:20.783Z,95612.78
2023-02-26T20:09:49.890Z,95617.75
2023-02-26T20:12:17.494Z,95613.16
2023-02-26T20:14:45.306Z,95621.50
2023-02-26T20:17:12.883Z,95623.41
2023-02-26T20:19:40.912Z,95624.09
2023-02-26T20:22:08.455Z,95623.06
2023-02-26T20:24:38.155Z,95626.47
2023-02-26T20:27:07.054Z,95624.34
2023-02-26T20:29:34.741Z,95631.88
2023-02-26T20:32:02.513Z,95627.66
2023-02-26T20:34:30.943Z,95626.13
2023-02-26T20:36:58.564Z,95641.66
2023-02-26T20:39:26.447Z,95644.63
2023-02-26T20:41:55.356Z,95637.28
2023-02-26T20:44:22.918Z,95633.78
2023-02-26T20:46:50.545Z,95630.22
2023-02-26T20:49:18.466Z,95627.63
2023-02-26T20:51:46.045Z,95635.53
2023-02-26T20:54:15.264Z,95642.94
2023-02-26T20:56:42.823Z,95642.50
2023-02-26T20:59:12.148Z,95645.66
2023-02-26T21:01:39.863Z,95653.56
2023-02-26T21:04:09.837Z,95644.38
2023-02-26T21:06:38.296Z,95649.09
2023-02-26T21:09:08.631Z,95646.72
2023-02-26T21:11:37.161Z,95638.72
2023-02-26T21:14:07.354Z,95642.94
2023-02-26T21:16:36.533Z,95648.63
2023-02-26T21:19:04.746Z,95650.84
2023-02-26T21:21:32.781Z,95658.75
2023-02-26T21:24:00.600Z,95662.63
2023-02-26T21:26:28.552Z,95659.22
2023-02-26T21:28:56.216Z,95659.91
2023-02-26T21:31:24.199Z,95662.28
2023-02-26T21:33:53.119Z,95667.47
2023-02-26T21:36:21.834Z,95671.59
2023-02-26T21:38:49.583Z,95672.41
2023-02-26T21:41:17.543Z,95660.59
2023-02-26T21:43:45.097Z,95665.94
2023-02-26T21:46:13.057Z,95674.53
2023-02-26T21:48:40.769Z,95674.28
2023-02-26T21:51:10.088Z,95666.78
2023-02-26T21:53:37.702Z,95664.63
2023-02-26T21:56:06.032Z,95666.78
2023-02-26T21:58:33.660Z,95666.28
2023-02-26T22:01:01.577Z,95667.22
2023-02-26T22:03:29.598Z,95669.69
2023-02-26T22:05:57.770Z,95665.34
2023-02-26T22:08:26.680Z,95663.44
2023-02-26T22:10:54.617Z,95665.94
2023-02-26T22:13:22.183Z,95675.16
2023-02-26T22:15:49.786Z,95673.78
2023-02-26T22:18:17.343Z,95671.47
2023-02-26T22:20:45.056Z,95668.16
2023-02-26T22:23:12.614Z,95668.84
2023-02-26T22:25:41.973Z,95672.66
2023-02-26T22:28:09.706Z,95678.13
2023-02-26T22:30:37.996Z,95674.28
2023-02-26T22:33:05.815Z,95686.50
2023-02-26T22:35:33.637Z,95677.69
2023-02-26T22:38:01.270Z,95678.50
2023-02-26T22:40:28.903Z,95679.91
2023-02-26T22:42:58.650Z,95679.81
2023-02-26T22:45:26.252Z,95680.50
2023-02-26T22:47:53.992Z,95681.00
2023-02-26T22:50:21.602Z,95683.00
2023-02-26T22:52:49.598Z,95678.16
2023-02-26T22:55:17.353Z,95688.63
2023-02-26T22:57:45.102Z,95680.88
2023-02-26T23:00:18.592Z,95689.59
2023-02-26T23:02:47.796Z,95678.59
2023-02-26T23:05:15.767Z,95695.91
2023-02-26T23:07:44.022Z,95694.88
2023-02-26T23:10:14.692Z,95700.06
2023-02-26T23:12:43.009Z,95692.63
2023-02-26T23:15:12.110Z,95704.75
2023-02-26T23:17:42.021Z,95701.47
2023-02-26T23:20:13.642Z,95704.44
2023-02-26T23:22:43.566Z,95695.72
2023-02-26T23:25:11.942Z,95698.66
2023-02-26T23:27:40.377Z,95705.84
2023-02-26T23:30:09.221Z,95702.41
2023-02-26T23:32:37.708Z,95690.72
2023-02-26T23:35:07.610Z,95693.56
2023-02-26T23:37:35.589Z,95691.91
2023-02-26T23:40:04.007Z,95693.94
2023-02-26T23:42:31.887Z,95694.00
2023-02-26T23:44:59.479Z,95701.88
2023-02-26T23:47:27.934Z,95691.16
2023-02-26T23:49:55.572Z,95689.56
2023-02-26T23:52:25.861Z,95697.22
2023-02-26T23:54:54.367Z,95695.22
2023-02-26T23:57:22.198Z,95699.44
2023-02-26T23:59:49.859Z,95693.06
